Time;durP1;ratioP1;P1;durP2;ratioP2;P2;SDS_P1;SDS_P2;PMS_P1;PMS_P2;Temp;Humidity;BMP_temperature;BMP_pressure;BME280_temperature;BME280_humidity;BME280_pressure;Samples;Min_cycle;Max_cycle;Signal;HPM_P1;HPM_P2
2023/10/07 00:01:24;;;;;;;13.27;5.82;;;14.10;99.90;;;;;;5013174;28;20262;-62
2023/10/07 00:03:56;;;;;;;10.70;5.85;;;14.10;99.90;;;;;;5013495;28;20214;-62
2023/10/07 00:06:28;;;;;;;11.15;5.63;;;14.20;99.90;;;;;;5012173;28;20602;-62
2023/10/07 00:08:54;;;;;;;12.15;5.60;;;14.20;99.90;;;;;;5013735;28;20160;-62
2023/10/07 00:11:19;;;;;;;13.35;5.65;;;14.20;99.90;;;;;;5013523;28;20601;-62
2023/10/07 00:13:47;;;;;;;14.18;6.40;;;14.20;99.90;;;;;;5013348;28;20183;-62
2023/10/07 00:16:14;;;;;;;10.73;5.43;;;14.20;99.90;;;;;;5014191;28;20179;-62
2023/10/07 00:18:40;;;;;;;11.65;5.47;;;14.10;99.90;;;;;;5033394;28;20170;-62
2023/10/07 00:21:15;;;;;;;10.43;5.60;;;14.10;99.90;;;;;;5033374;28;20184;-63
2023/10/07 00:23:42;;;;;;;10.13;5.25;;;14.10;99.90;;;;;;5036919;28;20147;-62
2023/10/07 00:26:09;;;;;;;10.98;6.05;;;14.10;99.90;;;;;;5036938;28;20331;-63
2023/10/07 00:28:36;;;;;;;17.10;6.32;;;14.10;99.90;;;;;;5037334;28;20155;-63
2023/10/07 00:31:22;;;;;;;12.20;5.45;;;14.10;99.90;;;;;;5036611;28;20183;-63
2023/10/07 00:34:03;;;;;;;9.00;5.28;;;14.00;99.90;;;;;;5036993;28;20156;-63
2023/10/07 00:39:02;;;;;;;10.13;5.95;;;14.00;99.90;;;;;;5036665;28;20211;-63
2023/10/07 00:41:36;;;;;;;10.55;5.43;;;14.00;99.90;;;;;;5036471;28;20248;-63
2023/10/07 00:44:17;;;;;;;12.77;5.68;;;14.00;99.90;;;;;;5036560;28;20150;-63
2023/10/07 00:46:45;;;;;;;10.43;5.43;;;14.00;99.90;;;;;;5035076;28;20202;-63
2023/10/07 00:49:20;;;;;;;10.73;5.28;;;14.00;99.90;;;;;;5036404;28;20213;-63
2023/10/07 00:51:47;;;;;;;9.85;5.38;;;14.00;99.90;;;;;;5036227;28;20679;-63
2023/10/07 00:54:18;;;;;;;9.52;5.70;;;14.00;99.90;;;;;;5036429;28;20190;-63
2023/10/07 00:59:32;;;;;;;8.55;5.45;;;13.90;99.90;;;;;;5036626;28;20201;-63
2023/10/07 01:01:58;;;;;;;10.88;6.55;;;13.90;99.90;;;;;;5035756;28;20195;-63
2023/10/07 01:04:24;;;;;;;10.82;5.47;;;13.90;99.90;;;;;;5036083;28;20197;-63
2023/10/07 01:07:00;;;;;;;11.90;5.57;;;13.90;99.90;;;;;;5036276;28;20742;-63
2023/10/07 01:09:28;;;;;;;12.52;6.15;;;13.90;99.90;;;;;;5036121;28;20163;-63
2023/10/07 01:11:57;;;;;;;9.50;5.20;;;13.90;99.90;;;;;;5035946;28;20209;-63
2023/10/07 01:14:26;;;;;;;8.23;5.55;;;13.90;99.90;;;;;;5036003;28;20183;-64
2023/10/07 01:16:53;;;;;;;14.68;6.22;;;13.80;99.90;;;;;;5034281;28;20217;-63
2023/10/07 01:19:28;;;;;;;9.80;5.70;;;13.80;99.90;;;;;;5036204;28;20195;-63
2023/10/07 01:21:55;;;;;;;9.25;5.57;;;13.80;99.90;;;;;;5036096;28;20197;-63
2023/10/07 01:27:35;;;;;;;14.82;6.53;;;13.80;99.90;;;;;;5035841;28;20171;-63
2023/10/07 01:30:13;;;;;;;11.68;6.13;;;13.70;99.90;;;;;;5035782;28;20602;-63
2023/10/07 01:32:50;;;;;;;12.05;5.88;;;13.70;99.90;;;;;;5035528;28;20571;-63
2023/10/07 01:35:25;;;;;;;9.32;5.93;;;13.80;99.90;;;;;;5036153;28;20654;-63
2023/10/07 01:37:59;;;;;;;15.43;6.60;;;13.80;99.90;;;;;;5035907;28;20528;-64
2023/10/07 01:40:41;;;;;;;12.32;6.85;;;13.70;99.90;;;;;;5035697;28;20202;-63
2023/10/07 01:43:07;;;;;;;13.00;6.32;;;13.70;99.90;;;;;;5035517;28;20158;-63
2023/10/07 01:45:39;;;;;;;10.50;5.63;;;13.70;99.90;;;;;;5035428;28;20199;-63
2023/10/07 01:48:08;;;;;;;12.25;6.38;;;13.70;99.90;;;;;;5035085;28;20179;-63
2023/10/07 01:50:40;;;;;;;11.70;6.05;;;13.80;99.90;;;;;;5035271;28;20179;-63
2023/10/07 01:53:07;;;;;;;14.05;6.15;;;13.80;99.90;;;;;;5035202;28;20179;-63
2023/10/07 01:55:42;;;;;;;12.25;5.93;;;13.80;99.90;;;;;;5035240;28;20197;-64
2023/10/07 01:58:13;;;;;;;10.50;6.93;;;13.80;99.90;;;;;;5033871;28;20701;-63
2023/10/07 02:00:57;;;;;;;13.65;6.10;;;13.70;99.90;;;;;;5035146;28;20184;-63
2023/10/07 02:03:23;;;;;;;13.95;6.65;;;13.80;99.90;;;;;;5034834;28;20151;-63
2023/10/07 02:05:50;;;;;;;11.40;6.07;;;13.80;99.90;;;;;;5033726;28;20171;-64
2023/10/07 02:08:23;;;;;;;10.07;6.13;;;13.80;99.90;;;;;;5034929;28;20175;-64
2023/10/07 02:10:57;;;;;;;14.20;6.88;;;13.90;99.90;;;;;;5034741;28;20274;-64
2023/10/07 02:13:24;;;;;;;17.40;6.95;;;13.90;99.90;;;;;;5035122;28;20503;-64
2023/10/07 02:15:54;;;;;;;12.27;7.47;;;13.80;99.90;;;;;;5034994;28;20240;-63
2023/10/07 02:18:21;;;;;;;11.00;6.25;;;13.90;99.90;;;;;;5034513;28;20179;-64
2023/10/07 02:26:18;;;;;;;13.45;6.45;;;14.00;99.90;;;;;;5035173;28;20163;-63
2023/10/07 02:28:45;;;;;;;15.70;6.85;;;14.00;99.90;;;;;;5034584;28;20148;-63
2023/10/07 02:31:19;;;;;;;14.75;6.82;;;14.00;99.90;;;;;;5034661;28;20195;-62
2023/10/07 02:33:52;;;;;;;13.73;7.50;;;14.10;99.90;;;;;;5034246;28;20155;-63
2023/10/07 02:36:31;;;;;;;11.63;7.22;;;14.10;99.90;;;;;;5034498;28;20628;-63
2023/10/07 02:39:26;;;;;;;11.63;7.22;;;14.10;99.90;;;;;;5032882;28;20363;-63
2023/10/07 02:41:56;;;;;;;12.40;7.03;;;14.10;99.90;;;;;;5034158;28;20206;-63
2023/10/07 02:44:29;;;;;;;14.82;7.20;;;14.10;99.90;;;;;;5033498;28;20167;-63
2023/10/07 02:46:56;;;;;;;15.90;7.90;;;14.10;99.90;;;;;;5032628;28;20182;-64
2023/10/07 02:49:22;;;;;;;14.15;7.22;;;14.10;99.90;;;;;;5032834;28;20179;-63
2023/10/07 02:51:55;;;;;;;14.07;8.00;;;14.10;99.90;;;;;;5033937;28;20206;-63
2023/10/07 02:54:22;;;;;;;19.08;8.10;;;14.10;99.90;;;;;;5032788;28;20170;-63
2023/10/07 02:56:56;;;;;;;13.50;8.25;;;14.20;99.90;;;;;;5032715;28;20270;-63
2023/10/07 02:59:33;;;;;;;18.33;8.82;;;14.10;99.90;;;;;;5032592;28;20199;-62
2023/10/07 03:04:58;;;;;;;16.27;8.52;;;14.10;99.90;;;;;;5033894;28;20178;-63
2023/10/07 03:07:25;;;;;;;14.95;8.40;;;14.20;99.90;;;;;;5033825;28;20515;-63
2023/10/07 03:10:04;;;;;;;15.63;8.80;;;14.20;99.90;;;;;;5034065;28;20190;-63
2023/10/07 03:12:36;;;;;;;17.65;8.82;;;14.20;99.90;;;;;;5012709;28;20207;-63
2023/10/07 03:15:20;;;;;;;14.60;8.20;;;14.20;99.90;;;;;;5012762;28;20270;-63
2023/10/07 03:17:46;;;;;;;13.65;7.70;;;14.20;99.90;;;;;;5027257;28;20187;-62
2023/10/07 03:20:28;;;;;;;19.80;9.63;;;14.20;99.90;;;;;;5033525;28;20199;-63
2023/10/07 03:23:13;;;;;;;18.60;9.43;;;14.20;99.90;;;;;;5032333;28;20596;-63
2023/10/07 03:28:21;;;;;;;15.65;8.93;;;14.30;99.90;;;;;;5034108;28;20159;-63
2023/10/07 03:30:55;;;;;;;16.85;8.68;;;14.20;99.90;;;;;;5033498;28;20181;-64
2023/10/07 03:38:57;;;;;;;17.45;10.32;;;14.20;99.90;;;;;;5033322;28;20186;-63
2023/10/07 03:41:23;;;;;;;15.98;9.57;;;14.20;99.90;;;;;;5033369;28;20671;-64
2023/10/07 03:43:50;;;;;;;17.83;9.73;;;14.30;99.90;;;;;;5033620;28;20177;-64
2023/10/07 03:46:17;;;;;;;19.35;10.30;;;14.20;99.90;;;;;;5033631;28;20171;-63
2023/10/07 03:48:53;;;;;;;16.98;8.95;;;14.30;99.90;;;;;;5033042;28;20207;-63
2023/10/07 03:51:22;;;;;;;15.15;9.65;;;14.30;99.90;;;;;;5033222;28;20182;-63
2023/10/07 03:53:57;;;;;;;18.10;10.57;;;14.30;99.90;;;;;;5033189;28;20174;-63
2023/10/07 03:56:22;;;;;;;20.33;10.80;;;14.30;99.90;;;;;;5035848;28;20213;-63
2023/10/07 03:58:48;;;;;;;20.05;10.40;;;14.30;99.90;;;;;;5037190;28;20651;-63
2023/10/07 04:01:17;;;;;;;23.23;11.73;;;14.30;99.90;;;;;;5037654;28;20195;-63
2023/10/07 04:03:47;;;;;;;17.15;10.23;;;14.30;99.90;;;;;;5036960;28;20631;-63
2023/10/07 04:06:17;;;;;;;15.73;10.80;;;14.30;99.90;;;;;;5037204;28;20186;-63
2023/10/07 04:08:54;;;;;;;20.83;11.85;;;14.30;99.90;;;;;;5037388;28;20225;-63
2023/10/07 04:11:25;;;;;;;22.08;11.60;;;14.30;99.90;;;;;;5037006;28;20284;-63
2023/10/07 04:13:56;;;;;;;19.58;11.40;;;14.30;99.90;;;;;;5037294;28;20162;-63
2023/10/07 04:16:24;;;;;;;22.40;11.95;;;14.30;99.90;;;;;;5035728;28;20202;-63
2023/10/07 04:19:16;;;;;;;19.98;12.05;;;14.30;99.90;;;;;;5036666;28;20515;-63
2023/10/07 04:21:42;;;;;;;19.85;11.75;;;14.30;99.90;;;;;;5037032;28;20195;-63
2023/10/07 04:24:12;;;;;;;19.83;12.10;;;14.30;99.90;;;;;;5036844;28;20665;-63
2023/10/07 04:26:39;;;;;;;24.67;11.85;;;14.30;99.90;;;;;;5035568;28;20178;-63
2023/10/07 04:29:16;;;;;;;21.20;12.23;;;14.40;99.90;;;;;;5036788;28;20183;-64
2023/10/07 04:31:51;;;;;;;24.27;13.82;;;14.30;99.90;;;;;;5036848;28;20195;-63
2023/10/07 04:34:18;;;;;;;23.10;13.13;;;14.30;99.90;;;;;;5036649;28;20159;-63
2023/10/07 04:39:53;;;;;;;20.92;13.07;;;14.30;99.90;;;;;;5036347;28;20213;-62
2023/10/07 04:42:22;;;;;;;21.30;13.10;;;14.30;99.90;;;;;;5036468;28;20293;-63
2023/10/07 04:52:28;;;;;;;20.10;13.15;;;14.30;99.90;;;;;;5036319;28;20277;-63
2023/10/07 04:54:56;;;;;;;24.48;13.38;;;14.30;99.90;;;;;;5036460;28;20175;-63
2023/10/07 05:00:08;;;;;;;22.02;14.05;;;14.40;99.90;;;;;;5036735;28;20225;-63
2023/10/07 05:02:35;;;;;;;20.92;13.63;;;14.40;99.90;;;;;;5034756;28;20278;-62
2023/10/07 05:05:10;;;;;;;23.20;14.20;;;14.30;99.90;;;;;;5036239;28;20655;-63
2023/10/07 05:07:38;;;;;;;21.75;14.15;;;14.40;99.90;;;;;;5035429;28;20209;-63
2023/10/07 05:10:07;;;;;;;26.50;15.45;;;14.40;99.90;;;;;;5036242;28;20168;-63
2023/10/07 05:12:33;;;;;;;22.20;13.32;;;14.40;99.90;;;;;;5036020;28;20218;-63
2023/10/07 05:15:00;;;;;;;20.40;14.35;;;14.30;99.90;;;;;;5036076;28;20550;-64
2023/10/07 05:17:29;;;;;;;24.80;15.23;;;14.40;99.90;;;;;;5035612;28;20174;-63
2023/10/07 05:19:58;;;;;;;24.58;14.43;;;14.40;99.90;;;;;;5035954;28;20270;-63
2023/10/07 05:22:25;;;;;;;26.70;15.93;;;14.40;99.90;;;;;;5035843;28;20226;-64
2023/10/07 05:24:56;;;;;;;22.02;15.55;;;14.30;99.90;;;;;;5035699;28;20723;-63
2023/10/07 05:27:23;;;;;;;27.02;16.95;;;14.40;99.90;;;;;;5035734;28;20159;-63
2023/10/07 05:29:49;;;;;;;25.67;17.27;;;14.40;99.90;;;;;;5035614;28;20778;-63
2023/10/07 05:32:17;;;;;;;28.52;16.17;;;14.40;99.90;;;;;;5035237;28;20249;-63
2023/10/07 05:34:45;;;;;;;26.33;17.95;;;14.40;99.90;;;;;;5035548;28;20258;-63
2023/10/07 05:37:12;;;;;;;26.85;16.50;;;14.40;99.90;;;;;;5034221;28;20195;-63
2023/10/07 05:39:41;;;;;;;23.83;16.85;;;14.40;99.90;;;;;;5034046;28;20210;-63
2023/10/07 05:42:10;;;;;;;26.80;17.50;;;14.40;99.90;;;;;;5035262;28;20203;-63
2023/10/07 05:44:37;;;;;;;23.02;16.50;;;14.40;99.90;;;;;;5035383;28;20182;-63
2023/10/07 05:47:03;;;;;;;28.33;16.50;;;14.40;99.90;;;;;;5035093;28;20207;-63
2023/10/07 05:49:31;;;;;;;26.15;16.15;;;14.40;99.90;;;;;;5034014;28;20698;-63
2023/10/07 05:51:58;;;;;;;27.38;17.08;;;14.40;99.90;;;;;;5035136;28;20191;-64
2023/10/07 05:54:28;;;;;;;24.98;17.25;;;14.40;99.90;;;;;;5035156;28;20175;-63
2023/10/07 05:57:01;;;;;;;28.80;17.58;;;14.40;99.90;;;;;;5035155;28;20231;-64
2023/10/07 05:59:32;;;;;;;31.15;17.85;;;14.40;99.90;;;;;;5035282;28;20183;-63
2023/10/07 06:02:01;;;;;;;27.60;17.55;;;14.40;99.90;;;;;;5035616;28;20225;-63
2023/10/07 06:04:28;;;;;;;26.55;16.05;;;14.50;99.90;;;;;;5034735;28;20175;-64
2023/10/07 06:06:54;;;;;;;26.70;18.55;;;14.50;99.90;;;;;;5034944;28;20178;-63
2023/10/07 06:09:21;;;;;;;27.52;16.08;;;14.50;99.90;;;;;;5035146;28;20261;-63
2023/10/07 06:11:48;;;;;;;26.92;16.80;;;14.50;99.90;;;;;;5034706;28;20203;-63
2023/10/07 06:14:18;;;;;;;24.65;16.50;;;14.60;99.90;;;;;;5033626;28;20182;-63
2023/10/07 06:16:45;;;;;;;26.42;17.20;;;14.60;99.90;;;;;;5034654;28;20191;-63
2023/10/07 06:19:13;;;;;;;24.35;17.08;;;14.60;99.90;;;;;;5032089;28;20210;-63
2023/10/07 06:21:50;;;;;;;26.23;17.30;;;14.70;99.90;;;;;;5034594;28;20653;-63
2023/10/07 06:24:21;;;;;;;29.63;16.88;;;14.60;99.90;;;;;;5035232;28;20166;-63
2023/10/07 06:26:48;;;;;;;22.55;16.63;;;14.70;99.90;;;;;;5034878;28;20287;-62
2023/10/07 06:29:18;;;;;;;28.48;17.05;;;14.60;99.90;;;;;;5033287;28;20190;-62
2023/10/07 06:31:55;;;;;;;24.63;17.08;;;14.60;99.90;;;;;;5034917;28;20202;-62
2023/10/07 06:34:26;;;;;;;26.02;15.95;;;14.70;99.90;;;;;;5034379;28;20171;-62
2023/10/07 06:36:52;;;;;;;24.80;16.63;;;14.70;99.90;;;;;;5034445;28;20162;-62
2023/10/07 06:39:27;;;;;;;22.73;16.70;;;14.70;99.90;;;;;;5032855;28;20215;-62
2023/10/07 06:41:55;;;;;;;23.73;16.25;;;14.70;99.90;;;;;;5034331;28;20685;-62
2023/10/07 06:44:23;;;;;;;24.17;16.20;;;14.70;99.90;;;;;;5034266;28;20173;-62
2023/10/07 06:46:55;;;;;;;31.17;17.25;;;14.70;99.90;;;;;;5034140;28;20591;-62
2023/10/07 06:49:21;;;;;;;23.08;17.15;;;14.70;99.90;;;;;;5034009;28;20160;-62
2023/10/07 06:51:54;;;;;;;25.08;17.80;;;14.60;99.90;;;;;;5034104;28;20201;-62
2023/10/07 06:54:32;;;;;;;29.08;17.63;;;14.70;99.90;;;;;;5034108;28;20242;-63
2023/10/07 06:56:58;;;;;;;23.15;17.10;;;14.70;99.90;;;;;;5034321;28;20169;-63
2023/10/07 06:59:28;;;;;;;25.60;17.35;;;14.80;99.90;;;;;;5034647;28;20205;-61
2023/10/07 07:01:55;;;;;;;24.33;16.90;;;14.70;99.90;;;;;;5033980;28;20195;-62
2023/10/07 07:04:25;;;;;;;33.83;17.85;;;14.70;99.90;;;;;;5033620;28;20529;-62
2023/10/07 07:07:10;;;;;;;23.50;15.75;;;14.70;99.90;;;;;;5033834;28;20175;-61
2023/10/07 07:09:44;;;;;;;23.77;16.27;;;14.70;99.90;;;;;;5034116;28;20159;-62
2023/10/07 07:12:12;;;;;;;21.38;16.42;;;14.80;99.90;;;;;;5033781;28;20570;-61
2023/10/07 07:14:51;;;;;;;20.25;16.55;;;14.80;99.90;;;;;;5033927;28;20258;-61
2023/10/07 07:17:35;;;;;;;27.13;17.17;;;14.80;99.90;;;;;;5034007;28;20187;-62
2023/10/07 07:22:45;;;;;;;23.63;16.98;;;14.80;99.90;;;;;;5033914;28;20201;-62
2023/10/07 07:25:35;;;;;;;26.35;17.05;;;14.80;99.90;;;;;;5033597;28;20701;-61
2023/10/07 07:28:03;;;;;;;21.30;15.95;;;14.80;99.90;;;;;;5033540;28;20147;-61
2023/10/07 07:30:32;;;;;;;21.20;15.25;;;14.90;99.90;;;;;;5033541;28;20160;-61
2023/10/07 07:33:00;;;;;;;23.42;15.38;;;14.90;99.90;;;;;;5033504;28;20201;-63
2023/10/07 07:35:39;;;;;;;26.48;16.15;;;14.90;99.90;;;;;;5032355;28;20576;-62
2023/10/07 07:38:30;;;;;;;21.00;15.70;;;15.00;99.90;;;;;;5032076;28;20413;-62
2023/10/07 07:41:10;;;;;;;18.58;14.50;;;15.00;99.90;;;;;;5031979;28;20231;-62
2023/10/07 07:43:40;;;;;;;22.77;14.45;;;15.10;99.90;;;;;;5033667;28;20197;-62
2023/10/07 07:46:26;;;;;;;20.65;13.40;;;15.10;99.90;;;;;;5033421;28;20178;-62
2023/10/07 07:48:55;;;;;;;19.75;12.70;;;15.20;99.90;;;;;;5013509;28;20162;-62
2023/10/07 07:51:25;;;;;;;20.45;13.73;;;15.20;99.90;;;;;;5013750;28;20262;-62
2023/10/07 07:53:52;;;;;;;18.75;14.52;;;15.20;99.90;;;;;;5013550;28;20227;-62
2023/10/07 07:56:22;;;;;;;18.15;13.40;;;15.20;99.90;;;;;;5013606;28;20179;-62
2023/10/07 07:58:48;;;;;;;21.83;14.10;;;15.20;99.90;;;;;;5013564;28;20217;-62
2023/10/07 08:01:21;;;;;;;22.00;13.20;;;15.30;99.90;;;;;;5013386;28;20211;-62
2023/10/07 08:03:47;;;;;;;20.75;14.43;;;15.30;99.90;;;;;;5013326;28;20259;-62
2023/10/07 08:06:19;;;;;;;21.25;14.15;;;15.30;99.90;;;;;;5013490;28;20195;-62
2023/10/07 08:08:55;;;;;;;16.95;12.20;;;15.30;99.90;;;;;;5012148;28;20180;-62
2023/10/07 08:11:21;;;;;;;22.27;12.73;;;15.40;99.90;;;;;;5034201;28;20213;-62
2023/10/07 08:13:50;;;;;;;19.75;12.82;;;15.50;99.90;;;;;;5053292;28;20581;-61
2023/10/07 08:16:19;;;;;;;19.65;12.10;;;15.60;99.90;;;;;;5051578;28;20166;-62
2023/10/07 08:18:49;;;;;;;19.40;11.43;;;15.60;99.90;;;;;;5032745;28;20233;-62
2023/10/07 08:21:15;;;;;;;17.38;11.68;;;15.80;99.90;;;;;;5032898;28;20203;-62
2023/10/07 08:23:44;;;;;;;14.15;10.35;;;15.90;99.90;;;;;;5033498;28;20178;-62
2023/10/07 08:26:12;;;;;;;14.88;10.23;;;16.00;99.90;;;;;;5032921;28;20176;-62
2023/10/07 08:28:43;;;;;;;16.20;10.68;;;16.10;99.90;;;;;;5033205;28;20178;-62
2023/10/07 08:31:20;;;;;;;18.02;10.45;;;16.20;99.90;;;;;;5032847;28;20195;-62
2023/10/07 08:34:09;;;;;;;16.23;10.43;;;16.10;99.90;;;;;;5032783;28;20643;-62
2023/10/07 08:36:47;;;;;;;17.52;10.55;;;16.10;99.90;;;;;;5032856;28;20198;-62
2023/10/07 08:39:16;;;;;;;15.43;10.93;;;16.10;99.90;;;;;;5032785;28;20260;-62
2023/10/07 08:41:47;;;;;;;16.83;10.48;;;16.10;99.90;;;;;;5046926;28;20195;-63
2023/10/07 08:44:13;;;;;;;15.23;10.40;;;16.10;99.90;;;;;;5057091;28;20155;-62
2023/10/07 08:46:52;;;;;;;15.82;10.55;;;16.10;99.90;;;;;;5051838;28;20186;-62
2023/10/07 08:49:26;;;;;;;14.95;9.15;;;16.10;99.90;;;;;;5036303;28;20628;-61
2023/10/07 08:51:56;;;;;;;15.80;10.15;;;16.20;99.90;;;;;;5035215;28;20686;-62
2023/10/07 08:54:32;;;;;;;14.05;9.40;;;16.30;99.90;;;;;;5036438;28;20159;-62
2023/10/07 08:57:05;;;;;;;9.93;8.18;;;16.40;99.90;;;;;;5036548;28;20170;-62
2023/10/07 08:59:32;;;;;;;14.35;9.40;;;16.50;99.90;;;;;;5036504;28;20301;-62
2023/10/07 09:02:04;;;;;;;18.73;8.95;;;16.70;99.90;;;;;;5036069;28;20270;-62
2023/10/07 09:04:33;;;;;;;10.82;8.18;;;16.80;99.90;;;;;;5036031;28;20238;-63
2023/10/07 09:07:00;;;;;;;11.80;7.97;;;16.80;99.90;;;;;;5036129;28;20175;-61
2023/10/07 09:09:43;;;;;;;16.90;8.05;;;16.70;99.90;;;;;;5036079;28;20175;-63
2023/10/07 09:12:15;;;;;;;15.02;8.52;;;16.60;99.90;;;;;;5053740;28;20198;-61
2023/10/07 09:14:57;;;;;;;11.50;7.32;;;16.50;99.90;;;;;;5056135;28;20526;-64
2023/10/07 09:17:26;;;;;;;10.15;6.97;;;16.50;99.90;;;;;;5045447;28;20181;-62
2023/10/07 09:19:58;;;;;;;12.25;7.65;;;16.50;99.90;;;;;;5035604;28;20226;-64
2023/10/07 09:22:32;;;;;;;12.60;7.30;;;16.50;99.90;;;;;;5035828;28;20202;-64
2023/10/07 09:25:16;;;;;;;11.65;7.45;;;16.60;99.90;;;;;;5036047;28;20689;-62
2023/10/07 09:27:54;;;;;;;10.68;6.60;;;16.60;99.90;;;;;;5035984;28;20206;-62
2023/10/07 09:30:45;;;;;;;15.02;6.72;;;16.60;99.90;;;;;;5034447;28;20175;-62
2023/10/07 09:33:19;;;;;;;12.43;6.70;;;16.60;99.90;;;;;;5035450;28;20310;-62
2023/10/07 09:35:47;;;;;;;9.68;6.63;;;16.70;99.90;;;;;;5035852;28;20217;-62
2023/10/07 09:38:24;;;;;;;13.10;6.35;;;16.70;99.90;;;;;;5035487;28;20175;-62
2023/10/07 09:43:25;;;;;;;9.73;6.05;;;16.80;99.90;;;;;;5055664;28;20170;-62
2023/10/07 09:45:58;;;;;;;12.15;5.93;;;17.00;99.90;;;;;;5055648;28;20163;-62
2023/10/07 09:48:31;;;;;;;11.50;5.57;;;17.20;99.90;;;;;;5036129;28;20178;-62
2023/10/07 09:51:24;;;;;;;8.85;5.65;;;17.40;99.90;;;;;;5035513;28;20160;-63
2023/10/07 09:54:10;;;;;;;9.10;5.88;;;17.50;99.90;;;;;;5034962;28;20158;-62
2023/10/07 09:57:06;;;;;;;9.10;5.43;;;17.70;99.90;;;;;;5035100;28;20182;-63
2023/10/07 09:59:48;;;;;;;8.20;5.32;;;17.70;99.90;;;;;;5035307;28;20282;-62
2023/10/07 10:02:23;;;;;;;9.85;5.28;;;17.90;99.90;;;;;;5035206;28;20191;-64
2023/10/07 10:04:59;;;;;;;10.15;5.35;;;18.00;99.90;;;;;;5034718;28;20163;-62
2023/10/07 10:07:33;;;;;;;13.18;5.68;;;18.00;99.90;;;;;;5034995;28;20638;-63
2023/10/07 10:10:12;;;;;;;9.40;4.85;;;18.00;99.90;;;;;;5034900;28;20170;-64
2023/10/07 10:17:48;;;;;;;11.05;5.43;;;18.20;99.90;;;;;;5028618;28;20232;-64
2023/10/07 10:20:20;;;;;;;10.38;5.00;;;18.30;99.90;;;;;;5033093;28;20210;-62
2023/10/07 10:22:53;;;;;;;8.80;4.78;;;18.30;99.90;;;;;;5034835;28;20195;-63
2023/10/07 10:25:33;;;;;;;7.18;4.72;;;18.40;99.90;;;;;;5034689;28;20186;-63
2023/10/07 10:28:03;;;;;;;8.85;4.57;;;18.50;99.90;;;;;;5034741;28;20294;-62
2023/10/07 10:30:29;;;;;;;10.93;5.05;;;18.60;99.90;;;;;;5035055;28;20203;-61
2023/10/07 10:33:00;;;;;;;10.15;4.50;;;18.70;99.90;;;;;;5034997;28;20278;-62
2023/10/07 10:35:27;;;;;;;9.43;4.97;;;18.80;99.90;;;;;;5034829;28;20158;-61
2023/10/07 10:37:56;;;;;;;7.65;4.32;;;18.90;99.90;;;;;;5034442;28;20644;-62
2023/10/07 10:40:23;;;;;;;8.18;4.78;;;19.00;99.90;;;;;;5033002;28;20222;-62
2023/10/07 10:42:51;;;;;;;8.02;4.85;;;19.00;99.90;;;;;;5034201;28;20198;-62
2023/10/07 10:45:26;;;;;;;9.23;3.90;;;19.10;99.90;;;;;;5034558;28;20254;-62
2023/10/07 10:47:54;;;;;;;10.65;4.05;;;19.20;99.90;;;;;;5034314;28;20177;-64
2023/10/07 10:50:23;;;;;;;7.22;4.15;;;19.30;99.90;;;;;;5034057;28;20164;-62
2023/10/07 10:52:49;;;;;;;7.60;3.85;;;19.40;99.90;;;;;;5034087;28;20198;-62
2023/10/07 10:55:17;;;;;;;13.13;4.45;;;19.60;99.90;;;;;;5033994;28;20184;-62
2023/10/07 10:57:43;;;;;;;9.48;3.83;;;19.60;99.90;;;;;;5032773;28;20183;-61
2023/10/07 11:00:22;;;;;;;8.50;3.60;;;19.80;99.90;;;;;;5033882;28;20222;-62
2023/10/07 11:02:53;;;;;;;5.57;3.42;;;19.80;99.90;;;;;;5033905;28;20671;-62
2023/10/07 11:05:22;;;;;;;9.32;3.60;;;19.80;99.90;;;;;;5033119;28;20171;-62
2023/10/07 11:07:50;;;;;;;8.07;3.50;;;20.00;99.90;;;;;;5034403;28;20175;-63
2023/10/07 11:10:23;;;;;;;8.50;3.35;;;20.00;99.90;;;;;;5033936;28;20232;-63
2023/10/07 11:12:56;;;;;;;7.18;3.65;;;20.20;99.90;;;;;;5033730;28;20202;-63
2023/10/07 11:15:27;;;;;;;6.78;3.55;;;20.10;99.90;;;;;;5033754;28;20160;-63
2023/10/07 11:17:58;;;;;;;8.05;3.22;;;20.30;99.90;;;;;;5033629;28;20179;-64
2023/10/07 11:20:32;;;;;;;6.20;3.20;;;20.30;99.90;;;;;;5033320;28;20191;-64
2023/10/07 11:22:58;;;;;;;8.05;3.42;;;20.50;99.90;;;;;;5033612;28;20186;-63
2023/10/07 11:25:27;;;;;;;7.05;3.05;;;20.70;99.90;;;;;;5033636;28;20213;-63
2023/10/07 11:27:55;;;;;;;6.25;2.90;;;20.80;99.90;;;;;;5033580;28;20163;-63
2023/10/07 11:30:22;;;;;;;4.90;2.90;;;20.80;99.90;;;;;;5033498;28;20199;-63
2023/10/07 11:32:48;;;;;;;8.45;3.60;;;20.60;99.90;;;;;;5033406;28;20202;-63
2023/10/07 11:35:25;;;;;;;8.90;3.50;;;20.40;99.90;;;;;;5033186;28;20179;-63
2023/10/07 11:37:57;;;;;;;5.90;3.30;;;20.30;99.90;;;;;;5032166;28;20171;-63
2023/10/07 11:40:24;;;;;;;6.72;3.42;;;20.30;99.90;;;;;;5033768;28;20207;-63
2023/10/07 11:42:51;;;;;;;7.97;3.03;;;20.20;99.90;;;;;;5033824;28;20191;-64
2023/10/07 11:45:17;;;;;;;6.05;3.40;;;20.10;99.90;;;;;;5033245;28;20246;-63
2023/10/07 11:47:44;;;;;;;8.35;3.47;;;20.10;99.90;;;;;;5033229;28;20182;-64
2023/10/07 11:50:10;;;;;;;7.25;3.97;;;20.10;99.90;;;;;;5033107;28;20155;-63
2023/10/07 11:52:37;;;;;;;6.88;3.30;;;20.10;99.90;;;;;;5033388;28;20226;-63
2023/10/07 11:55:07;;;;;;;6.60;3.20;;;20.10;99.90;;;;;;5033436;28;20175;-64
2023/10/07 11:57:39;;;;;;;4.53;3.22;;;20.10;99.90;;;;;;5031970;28;20182;-62
2023/10/07 12:00:22;;;;;;;10.52;3.20;;;20.20;99.90;;;;;;5033457;28;20248;-62
2023/10/07 12:02:50;;;;;;;8.27;3.60;;;20.30;99.90;;;;;;5033136;28;20190;-62
2023/10/07 12:05:17;;;;;;;5.72;3.45;;;20.30;99.90;;;;;;5032953;28;20205;-63
2023/10/07 12:07:47;;;;;;;5.47;3.42;;;20.30;99.90;;;;;;5033768;28;20179;-63
2023/10/07 12:10:15;;;;;;;11.02;3.80;;;20.50;99.90;;;;;;5033590;28;20251;-63
2023/10/07 12:12:45;;;;;;;6.47;3.13;;;20.70;99.90;;;;;;5033003;28;20654;-62
2023/10/07 12:15:15;;;;;;;5.45;3.33;;;20.70;99.90;;;;;;5033015;28;20546;-63
2023/10/07 12:17:44;;;;;;;8.75;3.88;;;20.80;99.90;;;;;;5036271;28;20186;-62
2023/10/07 12:20:13;;;;;;;6.85;3.58;;;20.60;99.90;;;;;;5036694;28;20203;-63
2023/10/07 12:22:43;;;;;;;7.55;3.45;;;20.60;99.90;;;;;;5036975;28;20535;-62
2023/10/07 12:25:16;;;;;;;5.80;3.03;;;20.70;99.90;;;;;;5037095;28;20156;-63
2023/10/07 12:27:47;;;;;;;6.78;3.55;;;20.70;99.90;;;;;;5036945;28;20655;-62
2023/10/07 12:30:17;;;;;;;9.77;3.47;;;20.80;99.90;;;;;;5037241;28;20160;-63
2023/10/07 12:32:44;;;;;;;7.03;3.22;;;20.70;99.90;;;;;;5036737;28;20282;-62
2023/10/07 12:35:11;;;;;;;8.68;3.30;;;20.70;99.90;;;;;;5036629;28;20667;-62
2023/10/07 12:37:38;;;;;;;7.32;3.30;;;20.50;99.90;;;;;;5036673;28;20193;-63
2023/10/07 12:40:10;;;;;;;9.48;3.92;;;20.40;99.90;;;;;;5036584;28;20329;-62
2023/10/07 12:42:42;;;;;;;7.57;3.63;;;20.50;99.90;;;;;;5036901;28;20195;-62
2023/10/07 12:45:11;;;;;;;8.15;3.55;;;20.40;99.90;;;;;;5035342;28;20681;-62
2023/10/07 12:47:48;;;;;;;6.97;3.20;;;20.50;99.90;;;;;;5036492;28;20179;-61
2023/10/07 12:52:56;;;;;;;5.55;3.40;;;20.50;99.90;;;;;;5036669;28;20187;-62
2023/10/07 12:55:32;;;;;;;5.22;2.92;;;20.80;99.90;;;;;;5037323;28;20159;-62
2023/10/07 12:58:05;;;;;;;7.20;3.20;;;21.00;99.90;;;;;;5036514;28;20515;-63
2023/10/07 13:00:33;;;;;;;5.20;3.20;;;21.20;99.90;;;;;;5035085;28;20664;-64
2023/10/07 13:03:05;;;;;;;11.63;4.80;;;21.50;99.90;;;;;;5036370;28;20195;-63
2023/10/07 13:05:37;;;;;;;6.70;3.55;;;21.60;99.90;;;;;;5035010;28;20171;-63
2023/10/07 13:08:12;;;;;;;7.75;4.28;;;21.80;99.90;;;;;;5036693;28;20148;-63
2023/10/07 13:10:38;;;;;;;9.15;3.25;;;21.70;99.90;;;;;;5036597;28;20183;-63
2023/10/07 13:13:05;;;;;;;6.97;3.90;;;21.60;99.90;;;;;;5034809;28;20202;-63
2023/10/07 13:15:33;;;;;;;10.05;3.50;;;21.60;99.90;;;;;;5034900;28;20526;-63
2023/10/07 13:18:01;;;;;;;8.40;3.97;;;21.60;99.90;;;;;;5036152;28;20230;-68
2023/10/07 13:20:27;;;;;;;6.55;3.20;;;21.70;99.90;;;;;;5035729;28;20225;-63
2023/10/07 13:23:01;;;;;;;8.10;3.63;;;21.80;99.90;;;;;;5035813;28;20250;-63
2023/10/07 13:25:26;;;;;;;10.50;4.05;;;21.90;99.90;;;;;;5034621;28;20190;-63
2023/10/07 13:27:56;;;;;;;8.05;3.88;;;21.70;99.90;;;;;;5035488;28;20216;-64
2023/10/07 13:30:24;;;;;;;13.30;6.78;;;21.60;99.90;;;;;;5035760;28;20178;-64
2023/10/07 13:32:52;;;;;;;6.18;3.80;;;21.70;99.90;;;;;;5036199;28;20187;-63
2023/10/07 13:35:19;;;;;;;11.27;4.93;;;21.50;99.90;;;;;;5035539;28;20249;-64
2023/10/07 13:37:51;;;;;;;9.55;4.30;;;21.60;99.90;;;;;;5035647;28;20241;-63
2023/10/07 13:40:19;;;;;;;11.80;4.20;;;21.60;99.90;;;;;;5035348;28;20203;-64
2023/10/07 13:43:06;;;;;;;7.93;4.25;;;21.50;99.90;;;;;;5035425;28;20186;-64
2023/10/07 13:45:32;;;;;;;7.03;3.80;;;21.50;99.90;;;;;;5034374;28;20261;-63
2023/10/07 13:47:58;;;;;;;7.90;3.80;;;21.50;99.90;;;;;;5035327;28;20233;-63